Winnebago, Minnesota
Current Conditions -  °F | °C
As of 9:15 PM on Wednesday 22 Oct 2014 (Local Time) from KFRM Reporting Station
Overcast Overcast  
Wind Chill: 57°   Ceiling: 4200
Heat Index: 57°   Visibility: 10mi
Dew Point: 43°   Wind: 17mph
Humidity: 59%   Direction: 180°S
Pressure: 30.06"   Gusts: 23mph
Location:  43.77°N, 94.17°W
Report Text: KFRM 230215Z AUTO 18015G20KT 10SM OVC042 14/06 A3006 RMK AO1
Loading
Personal Weather Stations






























Interactive Weather Map
Tropical Storm Tracking
New forecast layout! Learn more

10-Day Weather Forecast

Advertisements
Track Severe Weather on mobile